Time;durP1;ratioP1;P1;durP2;ratioP2;P2;SDS_P1;SDS_P2;PMS_P1;PMS_P2;Temp;Humidity;BMP_temperature;BMP_pressure;BME280_temperature;BME280_humidity;BME280_pressure;Samples;Min_cycle;Max_cycle;Signal;HPM_P1;HPM_P2
2023/11/11 00:02:23;;;;;;;8.63;4.97;;;;;;;;;;5033622;28;20228;-64
2023/11/11 00:04:48;;;;;;;6.23;4.33;;;;;;;;;;5047708;28;20688;-64
2023/11/11 00:07:14;;;;;;;9.37;4.67;;;;;;;;;;5048270;28;20200;-65
2023/11/11 00:09:39;;;;;;;7.60;4.67;;;;;;;;;;5050282;28;20271;-65
2023/11/11 00:12:07;;;;;;;8.00;5.13;;;;;;;;;;5051211;28;20286;-64
2023/11/11 00:14:32;;;;;;;7.30;4.23;;;;;;;;;;5047817;28;20582;-64
2023/11/11 00:16:57;;;;;;;9.07;4.27;;;;;;;;;;5046395;28;20181;-64
2023/11/11 00:19:23;;;;;;;6.87;3.77;;;;;;;;;;5033883;28;20181;-64
2023/11/11 00:21:49;;;;;;;7.20;4.13;;;;;;;;;;5051535;28;21170;-64
2023/11/11 00:24:14;;;;;;;4.93;3.20;;;;;;;;;;5053263;28;20285;-65
2023/11/11 00:26:40;;;;;;;8.57;3.53;;;;;;;;;;5048438;28;20185;-65
2023/11/11 00:29:05;;;;;;;6.37;3.13;;;;;;;;;;5048444;28;20191;-65
2023/11/11 00:31:33;;;;;;;6.97;3.73;;;;;;;;;;5048098;28;20209;-65
2023/11/11 00:33:59;;;;;;;6.07;3.47;;;;;;;;;;5052037;28;20180;-66
2023/11/11 00:36:25;;;;;;;5.17;2.30;;;;;;;;;;5049665;28;20237;-66
2023/11/11 00:38:50;;;;;;;3.13;2.33;;;;;;;;;;5049441;28;20324;-66
2023/11/11 00:41:15;;;;;;;5.67;2.43;;;;;;;;;;5049790;28;20736;-66
2023/11/11 00:43:41;;;;;;;3.47;2.17;;;;;;;;;;5050774;28;20764;-66
2023/11/11 00:46:06;;;;;;;4.17;2.27;;;;;;;;;;5045225;28;20182;-65
2023/11/11 00:48:31;;;;;;;9.63;2.83;;;;;;;;;;5038834;28;20197;-65
2023/11/11 00:50:58;;;;;;;5.63;2.47;;;;;;;;;;5040814;28;20210;-66
2023/11/11 00:53:23;;;;;;;6.87;2.20;;;;;;;;;;5028946;28;20209;-65
2023/11/11 00:55:48;;;;;;;3.73;2.10;;;;;;;;;;5049494;28;20668;-66
2023/11/11 00:58:13;;;;;;;5.47;2.77;;;;;;;;;;5049352;28;20173;-66
2023/11/11 01:00:39;;;;;;;2.63;2.07;;;;;;;;;;5048235;28;20688;-66
2023/11/11 01:03:05;;;;;;;5.63;1.90;;;;;;;;;;5048826;28;20192;-66
2023/11/11 01:05:30;;;;;;;8.00;2.33;;;;;;;;;;5032617;28;20212;-65
2023/11/11 01:07:55;;;;;;;5.50;1.80;;;;;;;;;;5050222;28;20278;-66
2023/11/11 01:10:24;;;;;;;3.73;1.60;;;;;;;;;;5049856;28;20251;-66
2023/11/11 01:12:51;;;;;;;3.63;1.60;;;;;;;;;;5048130;28;20232;-66
2023/11/11 01:15:16;;;;;;;4.70;1.77;;;;;;;;;;5050136;28;20693;-66
2023/11/11 01:17:41;;;;;;;2.47;1.60;;;;;;;;;;5048579;28;20307;-66
2023/11/11 01:20:07;;;;;;;6.27;1.77;;;;;;;;;;5049706;28;20181;-66
2023/11/11 01:22:32;;;;;;;4.53;1.30;;;;;;;;;;5046887;28;20284;-66
2023/11/11 01:24:58;;;;;;;2.53;1.27;;;;;;;;;;5047836;28;20174;-65
2023/11/11 01:27:23;;;;;;;4.93;1.97;;;;;;;;;;5049366;28;20540;-65
2023/11/11 01:29:48;;;;;;;2.83;1.13;;;;;;;;;;5050106;28;20507;-66
2023/11/11 01:32:14;;;;;;;1.70;0.77;;;;;;;;;;5048419;28;20202;-65
2023/11/11 01:34:39;;;;;;;5.10;1.00;;;;;;;;;;5032637;28;20178;-65
2023/11/11 01:37:07;;;;;;;3.10;1.07;;;;;;;;;;5048229;28;20184;-65
2023/11/11 01:39:33;;;;;;;2.50;0.80;;;;;;;;;;5049612;28;20177;-66
2023/11/11 01:41:58;;;;;;;3.60;0.67;;;;;;;;;;5047331;28;20208;-65
2023/11/11 01:44:23;;;;;;;2.43;0.63;;;;;;;;;;5047901;28;20660;-66
2023/11/11 01:46:49;;;;;;;2.53;0.80;;;;;;;;;;5048738;28;20205;-65
2023/11/11 01:49:15;;;;;;;3.83;1.30;;;;;;;;;;5049203;28;20653;-65
2023/11/11 01:51:41;;;;;;;2.87;0.43;;;;;;;;;;5044897;28;20209;-66
2023/11/11 01:54:06;;;;;;;1.10;0.60;;;;;;;;;;5049172;28;20194;-65
2023/11/11 01:56:31;;;;;;;0.70;0.43;;;;;;;;;;5048276;28;20174;-65
2023/11/11 01:58:57;;;;;;;1.73;0.43;;;;;;;;;;5048135;28;20188;-65
2023/11/11 02:01:23;;;;;;;2.10;0.57;;;;;;;;;;5048856;28;20224;-66
2023/11/11 02:03:48;;;;;;;3.00;0.30;;;;;;;;;;5052360;28;20186;-66
2023/11/11 02:06:14;;;;;;;1.53;0.40;;;;;;;;;;5051515;28;20637;-65
2023/11/11 02:08:39;;;;;;;0.20;0.20;;;;;;;;;;5051317;28;20182;-66
2023/11/11 02:11:05;;;;;;;1.17;0.47;;;;;;;;;;5050174;28;20205;-66
2023/11/11 02:13:34;;;;;;;0.20;0.20;;;;;;;;;;5051336;28;20288;-65
2023/11/11 02:15:59;;;;;;;1.17;0.50;;;;;;;;;;5029969;28;20185;-65
2023/11/11 02:18:25;;;;;;;0.70;0.43;;;;;;;;;;5050275;28;21115;-66
2023/11/11 02:20:50;;;;;;;2.83;0.53;;;;;;;;;;5051755;28;20204;-66
2023/11/11 02:23:16;;;;;;;1.83;0.33;;;;;;;;;;5049001;28;20269;-65
2023/11/11 02:25:41;;;;;;;0.70;0.47;;;;;;;;;;5051421;28;20570;-65
2023/11/11 02:28:07;;;;;;;0.20;0.20;;;;;;;;;;5058524;28;20204;-66
2023/11/11 02:30:32;;;;;;;2.93;0.50;;;;;;;;;;5051986;28;20177;-65
2023/11/11 02:32:57;;;;;;;1.73;0.40;;;;;;;;;;5051382;28;20202;-66
2023/11/11 02:35:23;;;;;;;1.53;0.43;;;;;;;;;;5044085;28;20255;-66
2023/11/11 02:37:48;;;;;;;0.73;0.30;;;;;;;;;;5046608;28;20180;-66
2023/11/11 02:40:14;;;;;;;4.07;0.40;;;;;;;;;;5051624;28;20620;-66
2023/11/11 02:42:40;;;;;;;0.93;0.33;;;;;;;;;;5035108;28;20210;-65
2023/11/11 02:45:05;;;;;;;1.97;0.60;;;;;;;;;;5053496;28;20203;-65
2023/11/11 02:47:31;;;;;;;1.50;0.30;;;;;;;;;;5047142;28;20182;-65
2023/11/11 02:49:57;;;;;;;1.60;0.57;;;;;;;;;;5042905;28;20276;-65
2023/11/11 02:52:22;;;;;;;3.00;0.47;;;;;;;;;;5048004;28;20785;-66
2023/11/11 02:54:47;;;;;;;0.90;0.60;;;;;;;;;;5034142;28;20595;-65
2023/11/11 02:57:12;;;;;;;5.90;1.50;;;;;;;;;;5050490;28;20189;-66
2023/11/11 02:59:39;;;;;;;2.93;0.70;;;;;;;;;;5047740;28;20645;-65
2023/11/11 03:02:05;;;;;;;2.43;0.70;;;;;;;;;;5046696;28;20225;-65
2023/11/11 03:04:30;;;;;;;1.97;0.50;;;;;;;;;;5049476;28;20240;-66
2023/11/11 03:06:55;;;;;;;4.90;1.33;;;;;;;;;;5033429;28;20189;-66
2023/11/11 03:09:20;;;;;;;4.87;0.90;;;;;;;;;;5049282;28;20185;-65
2023/11/11 03:11:46;;;;;;;6.97;1.10;;;;;;;;;;5050311;28;20201;-65
2023/11/11 03:14:11;;;;;;;2.03;0.80;;;;;;;;;;5049219;28;20659;-65
2023/11/11 03:16:37;;;;;;;9.97;2.20;;;;;;;;;;5047068;28;20180;-65
2023/11/11 03:19:03;;;;;;;3.37;1.30;;;;;;;;;;5050434;28;20182;-65
2023/11/11 03:21:29;;;;;;;1.90;0.90;;;;;;;;;;5049887;28;20281;-65
2023/11/11 03:23:55;;;;;;;1.67;1.00;;;;;;;;;;5049321;28;20292;-64
2023/11/11 03:26:20;;;;;;;2.97;1.20;;;;;;;;;;5050438;28;20653;-65
2023/11/11 03:28:45;;;;;;;2.97;1.13;;;;;;;;;;5035248;28;20186;-64
2023/11/11 03:31:11;;;;;;;3.50;1.47;;;;;;;;;;5047726;28;20703;-65
2023/11/11 03:33:36;;;;;;;2.43;1.50;;;;;;;;;;5032701;28;21634;-63
2023/11/11 03:36:01;;;;;;;5.83;1.77;;;;;;;;;;5048792;28;20173;-64
2023/11/11 03:38:26;;;;;;;3.47;1.40;;;;;;;;;;5052321;28;20268;-64
2023/11/11 03:40:51;;;;;;;9.23;1.77;;;;;;;;;;5055011;28;20332;-64
2023/11/11 03:43:16;;;;;;;5.20;1.37;;;;;;;;;;5049540;28;20194;-64
2023/11/11 03:45:42;;;;;;;5.10;1.60;;;;;;;;;;5050375;28;20191;-64
2023/11/11 03:48:07;;;;;;;2.17;1.40;;;;;;;;;;5052455;28;20227;-64
2023/11/11 03:50:32;;;;;;;5.33;1.80;;;;;;;;;;5047558;28;20644;-65
2023/11/11 03:52:57;;;;;;;2.80;1.40;;;;;;;;;;5051955;28;20212;-65
2023/11/11 03:55:23;;;;;;;2.97;1.30;;;;;;;;;;5047051;28;20194;-64
2023/11/11 03:57:48;;;;;;;4.00;1.53;;;;;;;;;;5048368;28;20213;-64
2023/11/11 04:00:19;;;;;;;4.57;2.03;;;;;;;;;;5049244;28;20173;-64
2023/11/11 04:02:45;;;;;;;3.00;1.30;;;;;;;;;;5034358;28;20197;-65
2023/11/11 04:05:12;;;;;;;2.70;0.87;;;;;;;;;;5049681;28;20204;-65
2023/11/11 04:07:41;;;;;;;1.63;1.03;;;;;;;;;;5050467;28;20657;-64
2023/11/11 04:10:06;;;;;;;2.83;1.10;;;;;;;;;;5051231;28;20671;-66
2023/11/11 04:12:31;;;;;;;4.63;1.07;;;;;;;;;;5049242;28;20197;-65
2023/11/11 04:14:57;;;;;;;2.17;1.33;;;;;;;;;;5050908;28;20181;-65
2023/11/11 04:17:22;;;;;;;3.27;1.43;;;;;;;;;;5051688;28;20172;-65
2023/11/11 04:19:47;;;;;;;2.87;1.20;;;;;;;;;;5047918;28;20201;-65
2023/11/11 04:22:13;;;;;;;4.83;1.17;;;;;;;;;;5050090;28;20201;-65
2023/11/11 04:24:38;;;;;;;2.10;0.97;;;;;;;;;;5038838;28;20181;-64
2023/11/11 04:27:03;;;;;;;8.97;1.17;;;;;;;;;;5048466;28;20561;-64
2023/11/11 04:29:30;;;;;;;4.60;1.30;;;;;;;;;;5047643;28;20176;-64
2023/11/11 04:31:55;;;;;;;4.27;0.97;;;;;;;;;;5046632;28;20265;-65
2023/11/11 04:34:21;;;;;;;3.03;1.00;;;;;;;;;;5048691;28;20269;-65
2023/11/11 04:36:47;;;;;;;4.93;0.80;;;;;;;;;;5047336;28;20260;-65
2023/11/11 04:39:13;;;;;;;5.37;1.67;;;;;;;;;;5049272;28;20177;-66
2023/11/11 04:41:38;;;;;;;7.83;1.67;;;;;;;;;;5047354;28;20201;-65
2023/11/11 04:44:03;;;;;;;2.70;1.00;;;;;;;;;;5031302;28;20239;-65
2023/11/11 04:46:29;;;;;;;3.50;1.60;;;;;;;;;;5048186;28;20186;-64
2023/11/11 04:48:54;;;;;;;3.10;1.30;;;;;;;;;;5049139;28;20406;-65
2023/11/11 04:51:20;;;;;;;3.07;1.23;;;;;;;;;;5047759;28;20205;-64
2023/11/11 04:53:45;;;;;;;3.07;1.20;;;;;;;;;;5048787;28;20691;-64
2023/11/11 04:56:10;;;;;;;4.33;1.30;;;;;;;;;;5049090;28;20323;-64
2023/11/11 04:58:38;;;;;;;5.43;1.53;;;;;;;;;;5043982;28;20201;-65
2023/11/11 05:01:03;;;;;;;5.40;1.27;;;;;;;;;;5046938;28;20575;-66
2023/11/11 05:03:28;;;;;;;3.90;1.30;;;;;;;;;;5049286;28;20189;-66
2023/11/11 05:05:54;;;;;;;4.00;1.00;;;;;;;;;;5048922;28;20257;-66
2023/11/11 05:08:19;;;;;;;2.67;1.13;;;;;;;;;;5048961;28;20178;-66
2023/11/11 05:10:44;;;;;;;1.33;0.80;;;;;;;;;;5046233;28;20707;-66
2023/11/11 05:13:09;;;;;;;1.20;0.73;;;;;;;;;;5050328;28;20202;-66
2023/11/11 05:15:42;;;;;;;1.10;0.70;;;;;;;;;;5046659;28;20181;-66
2023/11/11 05:18:07;;;;;;;1.17;0.60;;;;;;;;;;5036317;28;20259;-65
2023/11/11 05:20:32;;;;;;;2.57;0.90;;;;;;;;;;5053137;28;20208;-66
2023/11/11 05:22:57;;;;;;;7.47;1.07;;;;;;;;;;5057329;28;20665;-66
2023/11/11 05:25:23;;;;;;;3.40;1.07;;;;;;;;;;5049396;28;20178;-66
2023/11/11 05:27:49;;;;;;;2.03;0.87;;;;;;;;;;5049936;28;20311;-66
2023/11/11 05:30:15;;;;;;;3.07;1.20;;;;;;;;;;5048140;28;20198;-66
2023/11/11 05:32:40;;;;;;;4.33;1.10;;;;;;;;;;5053766;28;20197;-66
2023/11/11 05:35:06;;;;;;;2.03;1.03;;;;;;;;;;5050744;28;20182;-66
2023/11/11 05:37:31;;;;;;;2.53;0.90;;;;;;;;;;5053557;28;20239;-67
2023/11/11 05:39:57;;;;;;;2.87;0.70;;;;;;;;;;5051344;28;20303;-67
2023/11/11 05:42:22;;;;;;;4.70;1.17;;;;;;;;;;5053512;28;20198;-66
2023/11/11 05:44:48;;;;;;;1.60;0.90;;;;;;;;;;5043432;28;20182;-66
2023/11/11 05:47:13;;;;;;;0.90;0.70;;;;;;;;;;5048877;28;20544;-66
2023/11/11 05:49:43;;;;;;;1.90;0.90;;;;;;;;;;5052791;28;20185;-65
2023/11/11 05:52:08;;;;;;;3.83;1.00;;;;;;;;;;5052522;28;20208;-66
2023/11/11 05:54:33;;;;;;;4.20;1.20;;;;;;;;;;5050707;28;20181;-66
2023/11/11 05:56:58;;;;;;;1.13;0.90;;;;;;;;;;5036234;28;20169;-66
2023/11/11 05:59:24;;;;;;;4.57;0.70;;;;;;;;;;5049261;28;20178;-68
2023/11/11 06:01:49;;;;;;;2.00;0.93;;;;;;;;;;5050582;28;20326;-67
2023/11/11 06:04:15;;;;;;;4.57;0.90;;;;;;;;;;5053549;28;20189;-67
2023/11/11 06:06:43;;;;;;;0.70;0.63;;;;;;;;;;5053832;28;20273;-66
2023/11/11 06:09:15;;;;;;;0.90;0.60;;;;;;;;;;5047143;28;20173;-67
2023/11/11 06:11:41;;;;;;;1.27;0.57;;;;;;;;;;5037169;28;20193;-67
2023/11/11 06:14:07;;;;;;;2.00;0.83;;;;;;;;;;5048780;28;20266;-66
2023/11/11 06:16:32;;;;;;;1.27;0.60;;;;;;;;;;5035385;28;20298;-66
2023/11/11 06:18:57;;;;;;;1.07;0.80;;;;;;;;;;5053345;28;20262;-66
2023/11/11 06:21:23;;;;;;;2.60;0.60;;;;;;;;;;5049764;28;20258;-66
2023/11/11 06:23:48;;;;;;;0.43;0.40;;;;;;;;;;5057198;28;20190;-67
2023/11/11 06:26:13;;;;;;;2.10;0.70;;;;;;;;;;5052812;28;20182;-67
2023/11/11 06:28:38;;;;;;;1.37;0.70;;;;;;;;;;5052095;28;20188;-67
2023/11/11 06:31:03;;;;;;;1.57;0.77;;;;;;;;;;5050005;28;20197;-66
2023/11/11 06:33:29;;;;;;;1.53;0.70;;;;;;;;;;5049320;28;20260;-70
2023/11/11 06:35:58;;;;;;;0.60;0.60;;;;;;;;;;5049190;28;20256;-67
2023/11/11 06:38:23;;;;;;;2.17;0.50;;;;;;;;;;5052444;28;20188;-66
2023/11/11 06:40:49;;;;;;;1.70;0.70;;;;;;;;;;5052389;28;20213;-67
2023/11/11 06:43:14;;;;;;;2.33;0.80;;;;;;;;;;5041895;28;20452;-66
2023/11/11 06:45:41;;;;;;;2.27;0.60;;;;;;;;;;5052096;28;20176;-66
2023/11/11 06:48:06;;;;;;;0.77;0.60;;;;;;;;;;5035297;28;20196;-67
2023/11/11 06:50:32;;;;;;;2.73;0.77;;;;;;;;;;5052824;28;20566;-66
2023/11/11 06:52:57;;;;;;;0.87;0.70;;;;;;;;;;5050916;28;20244;-66
2023/11/11 06:55:22;;;;;;;2.43;0.60;;;;;;;;;;5050075;28;20712;-67
2023/11/11 06:57:47;;;;;;;2.93;0.60;;;;;;;;;;5049017;28;20327;-66
2023/11/11 07:00:18;;;;;;;2.47;0.70;;;;;;;;;;5049128;28;20718;-67
2023/11/11 07:02:44;;;;;;;1.33;0.80;;;;;;;;;;5049219;28;20206;-67
2023/11/11 07:05:10;;;;;;;1.37;0.70;;;;;;;;;;5049141;28;20236;-66
2023/11/11 07:07:35;;;;;;;1.20;0.43;;;;;;;;;;5050781;28;20319;-66
2023/11/11 07:10:00;;;;;;;0.93;0.63;;;;;;;;;;5048614;28;20273;-67
2023/11/11 07:12:26;;;;;;;3.83;0.90;;;;;;;;;;5051124;28;20213;-67
2023/11/11 07:14:51;;;;;;;2.13;1.00;;;;;;;;;;5050114;28;20181;-66
2023/11/11 07:17:16;;;;;;;0.90;0.60;;;;;;;;;;5051024;28;20188;-66
2023/11/11 07:19:41;;;;;;;1.50;0.80;;;;;;;;;;5050782;28;20182;-66
2023/11/11 07:22:07;;;;;;;0.70;0.70;;;;;;;;;;5049841;28;20727;-65
2023/11/11 07:24:32;;;;;;;2.77;0.80;;;;;;;;;;5050349;28;20563;-66
2023/11/11 07:26:57;;;;;;;1.20;0.60;;;;;;;;;;5049773;28;20228;-65
2023/11/11 07:29:25;;;;;;;1.67;0.90;;;;;;;;;;5051499;28;20556;-66
2023/11/11 07:31:51;;;;;;;5.40;1.00;;;;;;;;;;5048888;28;20635;-65
2023/11/11 07:34:16;;;;;;;2.70;0.90;;;;;;;;;;5048124;28;20174;-65
2023/11/11 07:36:42;;;;;;;0.93;0.83;;;;;;;;;;5049063;28;20249;-65
2023/11/11 07:39:08;;;;;;;1.53;0.60;;;;;;;;;;5050172;28;20264;-66
2023/11/11 07:41:33;;;;;;;2.90;1.13;;;;;;;;;;5050782;28;20529;-65
2023/11/11 07:44:04;;;;;;;4.00;1.00;;;;;;;;;;5031519;28;20190;-65
2023/11/11 07:46:29;;;;;;;1.20;0.80;;;;;;;;;;5050894;28;20173;-66
2023/11/11 07:48:55;;;;;;;1.60;0.90;;;;;;;;;;5048042;28;20624;-65
2023/11/11 07:51:22;;;;;;;2.53;1.13;;;;;;;;;;5048946;28;20757;-66
2023/11/11 07:53:48;;;;;;;1.00;0.90;;;;;;;;;;5048563;28;20233;-65
2023/11/11 07:56:13;;;;;;;2.33;1.17;;;;;;;;;;5053195;28;20219;-68
2023/11/11 07:58:38;;;;;;;2.07;1.37;;;;;;;;;;5051515;28;20563;-67
2023/11/11 08:01:05;;;;;;;2.17;1.40;;;;;;;;;;5029473;28;20287;-66
2023/11/11 08:03:32;;;;;;;3.20;1.23;;;;;;;;;;5048336;28;20209;-66
2023/11/11 08:05:57;;;;;;;2.87;1.10;;;;;;;;;;5050986;28;20239;-67
2023/11/11 08:08:24;;;;;;;2.77;1.50;;;;;;;;;;5051275;28;20185;-67
2023/11/11 08:10:50;;;;;;;2.77;0.87;;;;;;;;;;5051080;28;20242;-66
2023/11/11 08:13:15;;;;;;;4.47;1.03;;;;;;;;;;5048411;28;20205;-66
2023/11/11 08:15:40;;;;;;;3.93;1.17;;;;;;;;;;5049174;28;20173;-67
2023/11/11 08:18:06;;;;;;;6.13;1.30;;;;;;;;;;5051909;28;20238;-67
2023/11/11 08:20:31;;;;;;;2.17;1.00;;;;;;;;;;5045505;28;20184;-67
2023/11/11 08:22:56;;;;;;;5.03;1.77;;;;;;;;;;5046479;28;20236;-67
2023/11/11 08:25:22;;;;;;;2.30;1.60;;;;;;;;;;5048733;28;20178;-67
2023/11/11 08:27:50;;;;;;;3.77;1.13;;;;;;;;;;5045956;28;20189;-67
2023/11/11 08:30:16;;;;;;;3.87;1.10;;;;;;;;;;5048505;28;20190;-67
2023/11/11 08:32:42;;;;;;;4.17;1.50;;;;;;;;;;5049699;28;20711;-67
2023/11/11 08:35:08;;;;;;;4.43;1.60;;;;;;;;;;5050557;28;20196;-67
2023/11/11 08:37:33;;;;;;;3.70;1.90;;;;;;;;;;5039380;28;20231;-67
2023/11/11 08:39:59;;;;;;;4.13;2.00;;;;;;;;;;5050599;28;20598;-67
2023/11/11 08:42:25;;;;;;;3.70;2.33;;;;;;;;;;5045651;28;20217;-67
2023/11/11 08:44:51;;;;;;;3.77;1.70;;;;;;;;;;5046058;28;20279;-66
2023/11/11 08:47:19;;;;;;;6.50;2.13;;;;;;;;;;5048898;28;20198;-67
2023/11/11 08:49:44;;;;;;;8.33;1.77;;;;;;;;;;5049667;28;20637;-66
2023/11/11 08:52:10;;;;;;;5.47;1.80;;;;;;;;;;5050615;28;20215;-67
2023/11/11 08:54:36;;;;;;;5.20;1.87;;;;;;;;;;5050018;28;20631;-67
2023/11/11 08:57:01;;;;;;;2.90;1.90;;;;;;;;;;5048774;28;20219;-66
2023/11/11 08:59:26;;;;;;;4.07;1.97;;;;;;;;;;5052802;28;20664;-67
2023/11/11 09:01:52;;;;;;;3.33;1.93;;;;;;;;;;5049235;28;20215;-67
2023/11/11 09:04:17;;;;;;;1.97;1.80;;;;;;;;;;5052165;28;20181;-67
2023/11/11 09:06:42;;;;;;;6.10;2.30;;;;;;;;;;5052508;28;20184;-67
2023/11/11 09:09:07;;;;;;;8.03;2.40;;;;;;;;;;5052318;28;20189;-67
2023/11/11 09:11:36;;;;;;;5.60;2.10;;;;;;;;;;5052246;28;20276;-67
2023/11/11 09:14:03;;;;;;;5.37;2.10;;;;;;;;;;5046862;28;20204;-67
2023/11/11 09:16:28;;;;;;;5.70;2.70;;;;;;;;;;5052349;28;20712;-67
2023/11/11 09:18:53;;;;;;;3.50;2.30;;;;;;;;;;5050643;28;20173;-67
2023/11/11 09:21:18;;;;;;;2.40;2.20;;;;;;;;;;5050333;28;20201;-67
2023/11/11 09:23:44;;;;;;;8.27;3.00;;;;;;;;;;5050067;28;20644;-67
2023/11/11 09:26:09;;;;;;;7.17;3.03;;;;;;;;;;5050294;28;20182;-67
2023/11/11 09:28:34;;;;;;;9.17;3.30;;;;;;;;;;5049850;28;20204;-67
2023/11/11 09:30:59;;;;;;;4.60;3.30;;;;;;;;;;5047955;28;20207;-67
2023/11/11 09:33:24;;;;;;;12.63;3.30;;;;;;;;;;5048786;28;20197;-67
2023/11/11 09:35:50;;;;;;;8.07;2.70;;;;;;;;;;5048841;28;20541;-67
2023/11/11 09:38:15;;;;;;;4.17;2.80;;;;;;;;;;5051114;28;20193;-67
2023/11/11 09:40:40;;;;;;;6.23;3.10;;;;;;;;;;5048101;28;20201;-67
2023/11/11 09:43:06;;;;;;;4.03;2.87;;;;;;;;;;5048212;28;20186;-67
2023/11/11 09:45:31;;;;;;;5.67;2.80;;;;;;;;;;5050462;28;20185;-67
2023/11/11 09:48:00;;;;;;;8.13;2.63;;;;;;;;;;5049138;28;20637;-67
2023/11/11 09:50:26;;;;;;;6.90;2.87;;;;;;;;;;5049258;28;20183;-67
2023/11/11 09:52:52;;;;;;;5.80;2.13;;;;;;;;;;5048146;28;20225;-66
2023/11/11 09:55:18;;;;;;;8.03;2.50;;;;;;;;;;5039292;28;20211;-67
2023/11/11 09:57:46;;;;;;;4.13;2.37;;;;;;;;;;5050234;28;20193;-66
2023/11/11 10:00:11;;;;;;;9.83;2.13;;;;;;;;;;5047813;28;20173;-67
2023/11/11 10:02:37;;;;;;;6.37;2.10;;;;;;;;;;5046073;28;20221;-67
2023/11/11 10:05:04;;;;;;;4.60;2.30;;;;;;;;;;5048353;28;20188;-66
2023/11/11 10:07:29;;;;;;;3.83;1.90;;;;;;;;;;5052286;28;20394;-67
2023/11/11 10:09:55;;;;;;;4.63;1.70;;;;;;;;;;5032800;28;20189;-66
2023/11/11 10:12:21;;;;;;;6.00;3.00;;;;;;;;;;5051599;28;20660;-67
2023/11/11 10:14:47;;;;;;;3.73;1.83;;;;;;;;;;5047686;28;20362;-67
2023/11/11 10:17:13;;;;;;;6.03;2.20;;;;;;;;;;5051494;28;20287;-67
2023/11/11 10:19:42;;;;;;;8.37;3.10;;;;;;;;;;5050827;28;20177;-67
2023/11/11 10:22:08;;;;;;;3.47;2.33;;;;;;;;;;5054842;28;20649;-67
2023/11/11 10:24:33;;;;;;;8.83;2.60;;;;;;;;;;5054244;28;20184;-67
2023/11/11 10:26:58;;;;;;;7.13;3.10;;;;;;;;;;5051104;28;20256;-66
2023/11/11 10:29:23;;;;;;;4.80;2.87;;;;;;;;;;5036013;28;20328;-66
2023/11/11 10:31:49;;;;;;;5.67;2.60;;;;;;;;;;5050848;28;20240;-65
2023/11/11 10:34:14;;;;;;;4.87;2.67;;;;;;;;;;5049545;28;20205;-65
2023/11/11 10:36:43;;;;;;;3.33;2.00;;;;;;;;;;5052348;28;20177;-66
2023/11/11 10:39:10;;;;;;;2.73;1.53;;;;;;;;;;5049482;28;20177;-66
2023/11/11 10:41:35;;;;;;;2.23;1.00;;;;;;;;;;5051150;28;20660;-66
2023/11/11 10:44:01;;;;;;;3.00;1.20;;;;;;;;;;5049662;28;20238;-66
2023/11/11 10:46:26;;;;;;;4.10;0.77;;;;;;;;;;5053036;28;20696;-66
2023/11/11 10:48:52;;;;;;;3.97;1.70;;;;;;;;;;5051009;28;20657;-66
2023/11/11 10:51:17;;;;;;;2.17;0.97;;;;;;;;;;5053707;28;20209;-66
2023/11/11 10:53:45;;;;;;;4.67;1.00;;;;;;;;;;5053646;28;20205;-66
2023/11/11 10:56:11;;;;;;;3.53;1.20;;;;;;;;;;5052632;28;20193;-66
2023/11/11 10:58:38;;;;;;;3.58;0.80;;;;;;;;;;5042089;28;20178;-67
2023/11/11 11:01:04;;;;;;;2.22;0.70;;;;;;;;;;5045686;28;20209;-65
2023/11/11 11:03:30;;;;;;;6.30;0.90;;;;;;;;;;5050567;28;20265;-65
2023/11/11 11:06:03;;;;;;;1.55;0.63;;;;;;;;;;5051942;28;20621;-65
2023/11/11 11:08:37;;;;;;;0.57;0.50;;;;;;;;;;5049949;28;20185;-65
2023/11/11 11:11:12;;;;;;;2.77;0.87;;;;;;;;;;5050055;28;20566;-65
2023/11/11 11:13:38;;;;;;;5.93;0.75;;;;;;;;;;5050955;28;20200;-65
2023/11/11 11:16:04;;;;;;;2.77;0.67;;;;;;;;;;5051907;28;20178;-66
2023/11/11 11:18:29;;;;;;;1.27;0.73;;;;;;;;;;5050919;28;20174;-66
2023/11/11 11:20:57;;;;;;;2.90;1.00;;;;;;;;;;5052168;28;20193;-66
2023/11/11 11:23:22;;;;;;;2.87;0.90;;;;;;;;;;5050937;28;20228;-66
2023/11/11 11:25:48;;;;;;;1.93;0.97;;;;;;;;;;5051197;28;20327;-66
2023/11/11 11:28:14;;;;;;;2.50;1.37;;;;;;;;;;5034246;28;20653;-66
2023/11/11 11:30:42;;;;;;;2.13;0.80;;;;;;;;;;5055238;28;20686;-66
2023/11/11 11:33:08;;;;;;;4.53;1.33;;;;;;;;;;5049212;28;20669;-66
2023/11/11 11:35:38;;;;;;;2.00;0.70;;;;;;;;;;5046957;28;20192;-66
2023/11/11 11:38:05;;;;;;;4.13;1.63;;;;;;;;;;5047726;28;21396;-66
2023/11/11 11:40:32;;;;;;;1.70;0.70;;;;;;;;;;5055037;28;20335;-66
2023/11/11 11:42:58;;;;;;;1.50;0.90;;;;;;;;;;5053898;28;20197;-66
2023/11/11 11:45:28;;;;;;;2.58;1.25;;;;;;;;;;5050649;28;21867;-66
2023/11/11 11:47:53;;;;;;;1.30;0.80;;;;;;;;;;5045983;28;22172;-65
2023/11/11 11:50:19;;;;;;;1.85;0.98;;;;;;;;;;5052741;28;20185;-66
2023/11/11 11:52:46;;;;;;;3.95;1.20;;;;;;;;;;5050740;28;20238;-66
2023/11/11 11:55:11;;;;;;;2.20;0.77;;;;;;;;;;5041490;28;20601;-66
2023/11/11 11:57:51;;;;;;;5.15;0.75;;;;;;;;;;5040425;28;20185;-66
2023/11/11 12:00:17;;;;;;;2.15;0.70;;;;;;;;;;5048742;28;20236;-66
2023/11/11 12:02:42;;;;;;;1.73;0.73;;;;;;;;;;5045438;28;20699;-66
2023/11/11 12:05:08;;;;;;;1.20;0.70;;;;;;;;;;5050183;28;20209;-66
2023/11/11 12:07:37;;;;;;;1.60;0.90;;;;;;;;;;5049865;28;20182;-66
2023/11/11 12:10:12;;;;;;;3.88;1.85;;;;;;;;;;5052790;28;20702;-66
2023/11/11 12:12:38;;;;;;;6.43;1.90;;;;;;;;;;5039520;28;20287;-66
2023/11/11 12:15:14;;;;;;;2.85;0.93;;;;;;;;;;5048607;28;20256;-64
2023/11/11 12:17:40;;;;;;;3.70;1.00;;;;;;;;;;5052917;28;20594;-65
2023/11/11 12:20:06;;;;;;;1.40;0.80;;;;;;;;;;5051945;28;20561;-64
2023/11/11 12:22:31;;;;;;;0.90;0.60;;;;;;;;;;5050540;28;20225;-65
2023/11/11 12:24:57;;;;;;;0.87;0.80;;;;;;;;;;5039561;28;20275;-65
2023/11/11 12:27:22;;;;;;;1.57;0.53;;;;;;;;;;5052552;28;20181;-65
2023/11/11 12:29:48;;;;;;;2.10;0.70;;;;;;;;;;5050458;28;20190;-65
2023/11/11 12:32:13;;;;;;;1.27;0.73;;;;;;;;;;5050282;28;20601;-65
2023/11/11 12:34:39;;;;;;;1.93;1.07;;;;;;;;;;5050845;28;20173;-65
2023/11/11 12:37:05;;;;;;;2.60;1.00;;;;;;;;;;5052954;28;20652;-66
2023/11/11 12:39:30;;;;;;;2.90;1.27;;;;;;;;;;5053701;28;20185;-66
2023/11/11 12:41:56;;;;;;;3.07;0.70;;;;;;;;;;5050270;28;20450;-66
2023/11/11 12:44:23;;;;;;;2.77;1.30;;;;;;;;;;5052414;28;20206;-66
2023/11/11 12:46:49;;;;;;;2.53;1.13;;;;;;;;;;5044730;28;20186;-67
2023/11/11 12:49:15;;;;;;;3.97;1.40;;;;;;;;;;5051041;28;20274;-66
2023/11/11 12:51:42;;;;;;;5.73;1.40;;;;;;;;;;5047997;28;20779;-66
2023/11/11 12:54:08;;;;;;;1.87;1.00;;;;;;;;;;5054029;28;20686;-66
2023/11/11 12:56:33;;;;;;;3.37;1.17;;;;;;;;;;5050785;28;20660;-66
2023/11/11 12:59:09;;;;;;;3.87;1.20;;;;;;;;;;5047629;28;20201;-66
2023/11/11 13:01:35;;;;;;;3.97;1.40;;;;;;;;;;5047832;28;20204;-66
2023/11/11 13:04:03;;;;;;;1.60;0.80;;;;;;;;;;5030598;28;20185;-67
2023/11/11 13:06:35;;;;;;;4.57;1.23;;;;;;;;;;5048057;28;20644;-66
2023/11/11 13:09:19;;;;;;;1.60;0.80;;;;;;;;;;5047939;28;20182;-66
2023/11/11 13:11:46;;;;;;;2.80;0.73;;;;;;;;;;5045222;28;20198;-66
2023/11/11 13:14:12;;;;;;;7.27;1.20;;;;;;;;;;5050423;28;20205;-66
2023/11/11 13:16:38;;;;;;;1.10;0.70;;;;;;;;;;5049053;28;20249;-66
2023/11/11 13:19:03;;;;;;;2.40;0.77;;;;;;;;;;5050089;28;20169;-66
2023/11/11 13:21:29;;;;;;;1.57;0.77;;;;;;;;;;5048953;28;20211;-66
2023/11/11 13:23:55;;;;;;;0.70;0.70;;;;;;;;;;5050090;28;20180;-66
2023/11/11 13:26:21;;;;;;;1.23;0.70;;;;;;;;;;5049080;28;20190;-66
2023/11/11 13:28:48;;;;;;;1.37;0.90;;;;;;;;;;5050976;28;20189;-65
2023/11/11 13:31:14;;;;;;;5.40;0.90;;;;;;;;;;5045899;28;20216;-66
2023/11/11 13:33:40;;;;;;;3.80;1.70;;;;;;;;;;5030569;28;20201;-66
2023/11/11 13:36:11;;;;;;;1.53;0.90;;;;;;;;;;5045895;28;20261;-66
2023/11/11 13:38:36;;;;;;;1.03;0.80;;;;;;;;;;5046223;28;20193;-66
2023/11/11 13:41:04;;;;;;;1.30;1.00;;;;;;;;;;5046559;28;20197;-66
2023/11/11 13:43:29;;;;;;;1.23;0.80;;;;;;;;;;5030483;28;20373;-66
2023/11/11 13:45:54;;;;;;;0.83;0.53;;;;;;;;;;5049297;28;20185;-66
2023/11/11 13:48:20;;;;;;;3.93;0.67;;;;;;;;;;5047762;28;20189;-66
2023/11/11 13:50:45;;;;;;;2.30;0.80;;;;;;;;;;5050158;28;20262;-65
2023/11/11 13:53:11;;;;;;;1.03;0.87;;;;;;;;;;5052238;28;20204;-66
2023/11/11 13:55:36;;;;;;;5.27;0.87;;;;;;;;;;5056310;28;20243;-66
2023/11/11 13:58:01;;;;;;;1.17;0.70;;;;;;;;;;5052802;28;20312;-66
2023/11/11 14:00:27;;;;;;;2.30;0.80;;;;;;;;;;5053983;28;20239;-66
2023/11/11 14:02:56;;;;;;;2.50;1.20;;;;;;;;;;5046609;28;20189;-65
2023/11/11 14:05:22;;;;;;;2.80;0.80;;;;;;;;;;5051409;28;20607;-65
2023/11/11 14:07:48;;;;;;;3.57;1.20;;;;;;;;;;5052844;28;20189;-66
2023/11/11 14:10:15;;;;;;;2.13;1.03;;;;;;;;;;5059248;28;20185;-65
2023/11/11 14:12:41;;;;;;;1.83;0.80;;;;;;;;;;5049352;28;20194;-66
2023/11/11 14:15:07;;;;;;;2.27;1.10;;;;;;;;;;5055756;28;20199;-66
2023/11/11 14:17:32;;;;;;;2.53;0.70;;;;;;;;;;5049435;28;20181;-65
2023/11/11 14:19:57;;;;;;;2.07;0.93;;;;;;;;;;5053984;28;20176;-64
2023/11/11 14:22:29;;;;;;;1.27;0.90;;;;;;;;;;5049489;28;20612;-64
2023/11/11 14:24:54;;;;;;;4.50;1.50;;;;;;;;;;5054193;28;20181;-65
2023/11/11 14:27:19;;;;;;;1.20;1.07;;;;;;;;;;5049972;28;20582;-64
2023/11/11 14:29:45;;;;;;;1.70;0.90;;;;;;;;;;5051935;28;20185;-64
2023/11/11 14:32:11;;;;;;;2.13;1.00;;;;;;;;;;5050121;28;20226;-64
2023/11/11 14:34:36;;;;;;;2.77;1.47;;;;;;;;;;5056671;28;20710;-65
2023/11/11 14:37:02;;;;;;;2.23;1.20;;;;;;;;;;5050673;28;20183;-64